Latanier, Louisiana
Current Conditions -  °F | °C
As of 12:53 AM on Monday 24 Nov 2014 (Local Time) from KAEX Reporting Station
Clear Clear  
Wind Chill: 60°   Ceiling: Unl
Heat Index: 60°   Visibility: 10mi
Dew Point: 57°   Wind: 7mph
Humidity: 90%   Direction: 220°SW
Pressure: 29.68"   Gusts: NA
Location:  31.1282°N, 92.3823°W
Report Text: KAEX 240653Z AUTO 22006KT 10SM CLR 16/14 A2968 RMK AO2 SLP053 T01560139
Loading
Personal Weather Stations






























Interactive Weather Map New forecast layout! Learn more

10-Day Weather Forecast

Advertisements
Track Severe Weather on mobile